メインページ
METAR-TAF:

METAR-TAF

空港 :

萩, 日本

石見空港

緯度: 34-40N, 経度: 131-48E, 海抜: 54m

現時点の気象観測

当レポートは59分前の23:00(UTC)に作成
南/南東の風 5kt
気温 3°C
湿度 81%
気圧 1023 hPa
視程10km以上
高度3000ftの雲はほとんどない
高度10000ftの雲は散在している
高度15000ftの千切れ雲あり

METAR: RJOW 182300Z 16005KT 9999 FEW030 SCT100 BKN150 03/00 Q1023

時間: 08:59 (23:59 UTC)


TAF: 見つかりません

4,000以上の空港の気象観測と天気予報(METAR報とTAF報)

利用可能な観測所は地図上に黄色い丸と赤い丸で示す。

丸の上にカーソルを重ねると観測所名を参照できる。

次にクリックすると気象観測と天気予報を参照できる。

マップの切り替え:黒色「×」印の緑ボタンをクリックして拡大、「-」印の緑ボタンをクリックして縮小、緑色の三角印をクリックして隣りの地図に切り替え


METAR-TAF: